createdAt,value
2022-07-31T00:00:21.020Z,100.00
2022-07-31T00:02:47.555Z,100.00
2022-07-31T00:05:14.544Z,100.00
2022-07-31T00:07:41.163Z,100.00
2022-07-31T00:10:08.722Z,100.00
2022-07-31T00:12:35.367Z,100.00
2022-07-31T00:15:04.129Z,100.00
2022-07-31T00:17:32.231Z,100.00
2022-07-31T00:19:58.736Z,100.00
2022-07-31T00:22:25.350Z,100.00
2022-07-31T00:24:51.926Z,100.00
2022-07-31T00:27:18.465Z,100.00
2022-07-31T00:29:45.246Z,100.00
2022-07-31T00:32:11.918Z,100.00
2022-07-31T00:34:38.463Z,100.00
2022-07-31T00:37:05.409Z,100.00
2022-07-31T00:39:32.644Z,100.00
2022-07-31T00:41:59.208Z,100.00
2022-07-31T00:44:26.042Z,100.00
2022-07-31T00:46:52.946Z,100.00
2022-07-31T00:49:19.802Z,100.00
2022-07-31T00:51:46.854Z,100.00
2022-07-31T00:54:22.412Z,100.00
2022-07-31T00:56:50.498Z,100.00
2022-07-31T00:59:17.841Z,100.00
2022-07-31T01:01:51.256Z,100.00
2022-07-31T01:04:19.015Z,100.00
2022-07-31T01:06:47.496Z,100.00
2022-07-31T01:09:14.811Z,100.00
2022-07-31T01:12:19.211Z,100.00
2022-07-31T01:14:54.140Z,100.00
2022-07-31T01:17:25.000Z,100.00
2022-07-31T01:19:53.131Z,100.00
2022-07-31T01:22:52.434Z,100.00
2022-07-31T01:25:52.817Z,100.00
2022-07-31T01:28:59.647Z,100.00
2022-07-31T01:31:33.629Z,100.00
2022-07-31T01:34:08.689Z,100.00
2022-07-31T01:36:39.553Z,100.00
2022-07-31T01:39:06.200Z,100.00
2022-07-31T01:41:40.309Z,100.00
2022-07-31T01:44:14.261Z,100.00
2022-07-31T01:46:43.738Z,100.00
2022-07-31T01:49:12.867Z,100.00
2022-07-31T01:51:41.655Z,100.00
2022-07-31T01:54:09.808Z,100.00
2022-07-31T01:56:38.983Z,100.00
2022-07-31T01:59:20.572Z,100.00
2022-07-31T02:02:06.808Z,100.00
2022-07-31T02:04:37.043Z,100.00
2022-07-31T02:07:06.583Z,100.00
2022-07-31T02:09:34.903Z,100.00
2022-07-31T02:12:09.373Z,100.00
2022-07-31T02:14:36.471Z,100.00
2022-07-31T02:17:04.039Z,100.00
2022-07-31T02:20:11.529Z,100.00
2022-07-31T02:22:38.541Z,100.00
2022-07-31T02:25:06.917Z,100.00
2022-07-31T02:27:58.150Z,100.00
2022-07-31T02:30:26.091Z,100.00
2022-07-31T02:32:53.513Z,100.00
2022-07-31T02:35:21.390Z,100.00
2022-07-31T02:37:51.906Z,100.00
2022-07-31T02:40:20.010Z,100.00
2022-07-31T02:42:47.814Z,100.00
2022-07-31T02:45:15.499Z,100.00
2022-07-31T02:47:43.033Z,100.00
2022-07-31T02:50:12.908Z,100.00
2022-07-31T02:52:39.762Z,100.00
2022-07-31T02:55:07.353Z,100.00
2022-07-31T02:57:34.415Z,100.00
2022-07-31T03:00:01.043Z,100.00
2022-07-31T03:02:36.922Z,100.00
2022-07-31T03:05:05.348Z,100.00
2022-07-31T03:07:31.887Z,100.00
2022-07-31T03:09:58.819Z,100.00
2022-07-31T03:12:49.181Z,100.00
2022-07-31T03:15:21.665Z,100.00
2022-07-31T03:17:49.934Z,100.00
2022-07-31T03:20:23.617Z,100.00
2022-07-31T03:22:51.417Z,100.00
2022-07-31T03:25:21.854Z,100.00
2022-07-31T03:27:56.288Z,100.00
2022-07-31T03:30:28.014Z,100.00
2022-07-31T03:32:57.128Z,100.00
2022-07-31T03:35:24.856Z,100.00
2022-07-31T03:37:51.657Z,100.00
2022-07-31T03:40:18.381Z,100.00
2022-07-31T03:42:46.071Z,100.00
2022-07-31T03:45:13.815Z,100.00
2022-07-31T03:47:40.607Z,100.00
2022-07-31T03:50:08.766Z,100.00
2022-07-31T03:52:36.778Z,100.00
2022-07-31T03:55:04.078Z,100.00
2022-07-31T03:57:33.995Z,100.00
2022-07-31T04:00:03.271Z,100.00
2022-07-31T04:02:32.631Z,100.00
2022-07-31T04:05:23.003Z,100.00
2022-07-31T04:07:50.396Z,100.00
2022-07-31T04:10:19.268Z,100.00
2022-07-31T04:12:45.819Z,100.00
2022-07-31T04:15:13.295Z,100.00
2022-07-31T04:17:39.892Z,100.00
2022-07-31T04:20:09.373Z,100.00
2022-07-31T04:22:35.881Z,100.00
2022-07-31T04:25:07.491Z,100.00
2022-07-31T04:27:52.645Z,100.00
2022-07-31T04:30:19.182Z,100.00
2022-07-31T04:32:46.774Z,100.00
2022-07-31T04:35:17.701Z,100.00
2022-07-31T04:37:48.231Z,100.00
2022-07-31T04:40:16.149Z,100.00
2022-07-31T04:42:42.813Z,100.00
2022-07-31T04:45:09.874Z,100.00
2022-07-31T04:47:37.189Z,100.00
2022-07-31T04:50:04.732Z,100.00
2022-07-31T04:52:32.761Z,100.00
2022-07-31T04:55:04.599Z,100.00
2022-07-31T04:57:31.772Z,100.00
2022-07-31T05:00:00.827Z,100.00
2022-07-31T05:02:31.066Z,100.00
2022-07-31T05:04:57.738Z,100.00
2022-07-31T05:07:30.412Z,100.00
2022-07-31T05:09:58.704Z,100.00
2022-07-31T05:12:26.128Z,100.00
2022-07-31T05:14:53.445Z,100.00
2022-07-31T05:17:20.484Z,100.00
2022-07-31T05:19:59.469Z,100.00
2022-07-31T05:22:43.067Z,100.00
2022-07-31T05:25:23.179Z,100.00
2022-07-31T05:27:50.076Z,100.00
2022-07-31T05:30:17.007Z,100.00
2022-07-31T05:32:56.278Z,100.00
2022-07-31T05:35:22.905Z,100.00
2022-07-31T05:37:49.471Z,100.00
2022-07-31T05:40:17.274Z,100.00
2022-07-31T05:43:02.523Z,100.00
2022-07-31T05:45:46.954Z,100.00
2022-07-31T05:48:14.731Z,100.00
2022-07-31T05:50:45.345Z,100.00
2022-07-31T05:53:14.963Z,100.00
2022-07-31T05:56:00.309Z,100.00
2022-07-31T05:58:34.120Z,100.00
2022-07-31T06:01:01.329Z,100.00
2022-07-31T06:03:28.059Z,100.00
2022-07-31T06:06:03.502Z,100.00
2022-07-31T06:08:30.548Z,100.00
2022-07-31T06:10:57.602Z,100.00
2022-07-31T06:13:26.767Z,100.00
2022-07-31T06:15:53.882Z,100.00
2022-07-31T06:18:20.872Z,100.00
2022-07-31T06:20:47.668Z,100.00
2022-07-31T06:23:22.908Z,100.00
2022-07-31T06:26:15.239Z,100.00
2022-07-31T06:28:48.662Z,100.00
2022-07-31T06:31:21.218Z,100.00
2022-07-31T06:33:49.736Z,100.00
2022-07-31T06:36:20.162Z,100.00
2022-07-31T06:38:55.564Z,100.00
2022-07-31T06:41:51.597Z,98.95
2022-07-31T06:44:32.011Z,97.88
2022-07-31T06:47:19.040Z,97.38
2022-07-31T06:50:10.586Z,96.84
2022-07-31T06:52:46.643Z,96.79
2022-07-31T06:55:13.158Z,97.01
2022-07-31T06:57:40.768Z,97.09
2022-07-31T07:00:15.163Z,95.15
2022-07-31T07:02:47.754Z,94.24
2022-07-31T07:05:14.731Z,94.44
2022-07-31T07:07:41.332Z,94.02
2022-07-31T07:10:09.180Z,91.51
2022-07-31T07:12:54.383Z,91.26
2022-07-31T07:15:21.624Z,91.66
2022-07-31T07:17:48.264Z,91.38
2022-07-31T07:20:20.000Z,90.17
2022-07-31T07:22:46.590Z,89.73
2022-07-31T07:25:20.519Z,88.11
2022-07-31T07:27:48.343Z,84.68
2022-07-31T07:30:16.966Z,84.90
2022-07-31T07:32:44.051Z,83.96
2022-07-31T07:35:12.463Z,84.74
2022-07-31T07:37:50.813Z,83.25
2022-07-31T07:40:17.941Z,83.68
2022-07-31T07:42:45.184Z,82.22
2022-07-31T07:45:13.958Z,80.55
2022-07-31T07:48:02.794Z,80.14
2022-07-31T07:50:32.055Z,80.59
2022-07-31T07:53:25.217Z,80.84
2022-07-31T07:56:10.282Z,82.14
2022-07-31T07:58:55.582Z,82.43
2022-07-31T08:01:40.864Z,81.57
2022-07-31T08:04:27.796Z,80.81
2022-07-31T08:06:54.341Z,79.62
2022-07-31T08:09:24.643Z,79.76
2022-07-31T08:12:09.751Z,80.37
2022-07-31T08:14:55.116Z,80.90
2022-07-31T08:17:54.209Z,79.84
2022-07-31T08:20:21.953Z,78.59
2022-07-31T08:22:50.801Z,78.88
2022-07-31T08:25:17.443Z,78.44
2022-07-31T08:27:47.916Z,77.19
2022-07-31T08:30:15.883Z,76.30
2022-07-31T08:32:42.548Z,76.80
2022-07-31T08:35:27.532Z,77.75
2022-07-31T08:38:03.461Z,78.40
2022-07-31T08:40:43.442Z,77.78
2022-07-31T08:44:00.909Z,75.39
2022-07-31T08:46:02.789Z,74.34
2022-07-31T08:48:33.672Z,73.90
2022-07-31T08:51:05.598Z,71.47
2022-07-31T08:53:51.672Z,71.51
2022-07-31T08:56:20.511Z,71.36
2022-07-31T08:58:47.119Z,70.34
2022-07-31T09:01:14.732Z,71.69
2022-07-31T09:03:41.950Z,69.96
2022-07-31T09:06:13.477Z,66.08
2022-07-31T09:08:41.182Z,64.56
2022-07-31T09:11:11.395Z,64.96
2022-07-31T09:14:02.732Z,62.70
2022-07-31T09:16:50.352Z,64.33
2022-07-31T09:19:51.159Z,62.58
2022-07-31T09:22:28.223Z,61.72
2022-07-31T09:25:12.202Z,61.74
2022-07-31T09:27:39.648Z,62.25
2022-07-31T09:30:07.497Z,61.24
2022-07-31T09:32:52.350Z,59.23
2022-07-31T09:35:48.999Z,59.36
2022-07-31T09:38:16.135Z,58.79
2022-07-31T09:41:55.529Z,59.08
2022-07-31T09:44:10.988Z,57.56
2022-07-31T09:46:46.626Z,57.33
2022-07-31T09:49:14.328Z,56.80
2022-07-31T09:51:46.933Z,56.93
2022-07-31T09:54:22.644Z,58.07
2022-07-31T09:56:58.725Z,57.56
2022-07-31T09:59:28.925Z,56.60
2022-07-31T10:01:55.985Z,54.22
2022-07-31T10:04:23.540Z,54.12
2022-07-31T10:06:52.083Z,51.17
2022-07-31T10:09:21.287Z,53.17
2022-07-31T10:12:04.948Z,52.42
2022-07-31T10:14:36.485Z,52.61
2022-07-31T10:17:04.760Z,51.95
2022-07-31T10:20:04.282Z,52.17
2022-07-31T10:22:53.552Z,51.82
2022-07-31T10:25:29.575Z,52.05
2022-07-31T10:27:57.889Z,51.75
2022-07-31T10:30:28.412Z,51.35
2022-07-31T10:32:58.735Z,51.22
2022-07-31T10:35:26.049Z,49.96
2022-07-31T10:38:38.123Z,51.43
2022-07-31T10:41:34.540Z,51.21
2022-07-31T10:44:19.248Z,49.21
2022-07-31T10:47:16.033Z,48.67
2022-07-31T10:50:01.602Z,47.05
2022-07-31T10:52:39.925Z,48.76
2022-07-31T10:55:23.278Z,48.14
2022-07-31T10:58:16.133Z,48.86
2022-07-31T11:00:53.625Z,49.22
2022-07-31T11:03:39.026Z,49.29
2022-07-31T11:06:21.422Z,48.92
2022-07-31T11:09:25.995Z,47.50
2022-07-31T11:12:03.276Z,48.96
2022-07-31T11:14:40.408Z,47.10
2022-07-31T11:18:23.182Z,45.65
2022-07-31T11:20:26.330Z,46.41
2022-07-31T11:22:54.537Z,45.44
2022-07-31T11:25:21.759Z,46.92
2022-07-31T11:27:48.303Z,46.48
2022-07-31T11:30:14.856Z,46.65
2022-07-31T11:32:47.541Z,46.02
2022-07-31T11:35:24.382Z,46.53
2022-07-31T11:37:58.129Z,46.11
2022-07-31T11:40:26.530Z,46.54
2022-07-31T11:43:24.359Z,45.96
2022-07-31T11:45:49.804Z,45.97
2022-07-31T11:48:19.188Z,45.65
2022-07-31T11:50:47.842Z,45.33
2022-07-31T11:53:14.539Z,44.29
2022-07-31T11:55:54.206Z,43.67
2022-07-31T11:58:22.719Z,44.76
2022-07-31T12:01:00.463Z,43.76
2022-07-31T12:03:38.747Z,43.57
2022-07-31T12:06:07.324Z,43.92
2022-07-31T12:08:35.406Z,43.85
2022-07-31T12:11:04.427Z,43.50
2022-07-31T12:13:32.335Z,43.31
2022-07-31T12:16:09.885Z,44.58
2022-07-31T12:18:47.640Z,43.68
2022-07-31T12:21:14.416Z,42.93
2022-07-31T12:23:43.770Z,43.33
2022-07-31T12:26:22.765Z,43.15
2022-07-31T12:29:07.731Z,42.86
2022-07-31T12:31:52.459Z,44.37
2022-07-31T12:34:38.278Z,42.82
2022-07-31T12:37:13.228Z,41.93
2022-07-31T12:39:59.457Z,43.23
2022-07-31T12:42:41.221Z,43.12
2022-07-31T12:45:19.402Z,43.49
2022-07-31T12:47:52.250Z,45.25
2022-07-31T12:50:20.119Z,44.66
2022-07-31T12:52:46.730Z,44.70
2022-07-31T12:55:13.672Z,43.85
2022-07-31T12:57:51.321Z,43.58
2022-07-31T13:00:24.079Z,44.96
2022-07-31T13:02:58.195Z,44.80
2022-07-31T13:05:25.690Z,45.09
2022-07-31T13:07:52.692Z,43.76
2022-07-31T13:10:23.668Z,42.87
2022-07-31T13:12:51.069Z,43.01
2022-07-31T13:15:19.992Z,43.21
2022-07-31T13:17:50.586Z,40.86
2022-07-31T13:20:17.989Z,41.90
2022-07-31T13:22:44.501Z,40.52
2022-07-31T13:25:11.216Z,40.34
2022-07-31T13:27:38.159Z,40.02
2022-07-31T13:30:05.376Z,40.14
2022-07-31T13:32:32.030Z,40.26
2022-07-31T13:35:26.773Z,40.36
2022-07-31T13:37:46.529Z,39.85
2022-07-31T13:40:13.797Z,40.21
2022-07-31T13:42:40.520Z,40.95
2022-07-31T13:45:08.579Z,40.15
2022-07-31T13:47:51.731Z,39.19
2022-07-31T13:50:19.265Z,38.69
2022-07-31T13:52:45.785Z,40.08
2022-07-31T13:55:12.279Z,40.34
2022-07-31T13:57:38.763Z,41.24
2022-07-31T14:00:06.167Z,39.03
2022-07-31T14:02:32.771Z,39.58
2022-07-31T14:04:59.437Z,39.38
2022-07-31T14:07:48.084Z,40.16
2022-07-31T14:10:17.148Z,42.17
2022-07-31T14:12:46.547Z,40.17
2022-07-31T14:15:13.077Z,40.51
2022-07-31T14:17:39.655Z,40.66
2022-07-31T14:20:06.674Z,41.26
2022-07-31T14:22:33.614Z,41.65
2022-07-31T14:25:02.508Z,42.01
2022-07-31T14:27:29.199Z,42.89
2022-07-31T14:29:55.827Z,42.61
2022-07-31T14:32:22.690Z,42.84
2022-07-31T14:34:50.269Z,42.53
2022-07-31T14:37:17.257Z,42.51
2022-07-31T14:39:44.163Z,42.68
2022-07-31T14:42:11.187Z,43.14
2022-07-31T14:44:40.132Z,42.22
2022-07-31T14:47:06.897Z,42.49
2022-07-31T14:50:09.351Z,42.79
2022-07-31T14:52:20.557Z,43.24
2022-07-31T14:54:47.139Z,43.34
2022-07-31T14:57:21.337Z,42.93
2022-07-31T14:59:50.251Z,41.72
2022-07-31T15:02:21.883Z,41.37
2022-07-31T15:04:49.909Z,42.44
2022-07-31T15:07:34.683Z,43.58
2022-07-31T15:10:07.920Z,43.39
2022-07-31T15:12:34.569Z,43.34
2022-07-31T15:15:01.372Z,43.47
2022-07-31T15:17:27.918Z,43.76
2022-07-31T15:19:54.469Z,44.09
2022-07-31T15:22:21.148Z,44.01
2022-07-31T15:24:50.001Z,44.36
2022-07-31T15:27:24.678Z,44.60
2022-07-31T15:30:05.041Z,44.87
2022-07-31T15:32:38.967Z,44.88
2022-07-31T15:35:07.653Z,44.89
2022-07-31T15:37:38.680Z,45.35
2022-07-31T15:40:11.275Z,45.17
2022-07-31T15:42:40.926Z,44.72
2022-07-31T15:45:13.874Z,45.25
2022-07-31T15:47:41.271Z,44.08
2022-07-31T15:50:09.986Z,44.05
2022-07-31T15:52:37.079Z,44.23
2022-07-31T15:55:04.662Z,44.45
2022-07-31T15:57:31.202Z,43.93
2022-07-31T15:59:58.066Z,43.59
2022-07-31T16:02:25.383Z,43.40
2022-07-31T16:04:54.817Z,43.93
2022-07-31T16:08:30.839Z,44.64
2022-07-31T16:10:16.341Z,44.62
2022-07-31T16:12:48.182Z,45.05
2022-07-31T16:15:16.742Z,45.04
2022-07-31T16:17:44.509Z,45.95
2022-07-31T16:20:25.991Z,46.34
2022-07-31T16:23:01.012Z,46.60
2022-07-31T16:25:29.056Z,46.59
2022-07-31T16:27:56.166Z,46.99
2022-07-31T16:30:23.260Z,47.37
2022-07-31T16:32:50.195Z,46.95
2022-07-31T16:35:17.137Z,46.41
2022-07-31T16:37:51.711Z,46.46
2022-07-31T16:40:30.146Z,46.23
2022-07-31T16:43:03.023Z,47.04
2022-07-31T16:45:51.138Z,47.69
2022-07-31T16:48:18.031Z,49.81
2022-07-31T16:50:44.606Z,52.00
2022-07-31T16:53:13.602Z,52.70
2022-07-31T16:56:01.711Z,53.28
2022-07-31T16:58:28.828Z,53.68
2022-07-31T17:00:58.145Z,54.21
2022-07-31T17:03:59.110Z,54.58
2022-07-31T17:06:11.555Z,54.27
2022-07-31T17:08:38.391Z,54.43
2022-07-31T17:11:05.204Z,53.70
2022-07-31T17:13:31.888Z,52.82
2022-07-31T17:16:01.285Z,55.73
2022-07-31T17:18:27.846Z,57.57
2022-07-31T17:20:56.157Z,58.30
2022-07-31T17:23:42.826Z,59.27
2022-07-31T17:26:20.718Z,61.00
2022-07-31T17:28:48.930Z,64.28
2022-07-31T17:31:15.479Z,66.68
2022-07-31T17:33:55.820Z,66.89
2022-07-31T17:36:27.422Z,68.42
2022-07-31T17:38:53.943Z,66.73
2022-07-31T17:41:24.574Z,67.64
2022-07-31T17:43:53.273Z,67.93
2022-07-31T17:46:28.329Z,68.81
2022-07-31T17:49:01.787Z,69.89
2022-07-31T17:51:28.485Z,71.85
2022-07-31T17:53:59.333Z,73.35
2022-07-31T17:56:26.534Z,74.34
2022-07-31T17:58:53.112Z,74.46
2022-07-31T18:01:20.211Z,74.93
2022-07-31T18:03:48.148Z,75.93
2022-07-31T18:06:14.831Z,75.71
2022-07-31T18:08:41.577Z,75.99
2022-07-31T18:11:08.294Z,75.97
2022-07-31T18:13:48.687Z,76.59
2022-07-31T18:16:19.273Z,76.54
2022-07-31T18:18:46.226Z,75.76
2022-07-31T18:21:13.429Z,75.72
2022-07-31T18:23:43.529Z,75.78
2022-07-31T18:26:14.067Z,75.83
2022-07-31T18:28:40.707Z,75.67
2022-07-31T18:31:15.535Z,76.17
2022-07-31T18:33:53.745Z,75.93
2022-07-31T18:36:21.299Z,76.39
2022-07-31T18:38:48.151Z,76.69
2022-07-31T18:41:17.186Z,77.08
2022-07-31T18:43:43.680Z,76.77
2022-07-31T18:46:10.296Z,76.92
2022-07-31T18:48:36.897Z,77.06
2022-07-31T18:51:05.199Z,77.19
2022-07-31T18:53:33.166Z,77.38
2022-07-31T18:55:59.773Z,77.19
2022-07-31T18:58:26.291Z,77.28
2022-07-31T19:00:55.270Z,77.43
2022-07-31T19:03:23.500Z,78.12
2022-07-31T19:05:53.082Z,78.79
2022-07-31T19:08:20.541Z,78.94
2022-07-31T19:10:49.380Z,79.38
2022-07-31T19:13:18.986Z,79.77
2022-07-31T19:15:51.576Z,79.64
2022-07-31T19:18:20.408Z,79.56
2022-07-31T19:20:58.722Z,79.69
2022-07-31T19:23:41.884Z,79.71
2022-07-31T19:26:08.664Z,80.02
2022-07-31T19:28:36.712Z,80.29
2022-07-31T19:31:03.283Z,80.21
2022-07-31T19:33:30.171Z,80.24
2022-07-31T19:36:01.470Z,80.48
2022-07-31T19:38:31.329Z,81.13
2022-07-31T19:40:58.093Z,81.45
2022-07-31T19:43:24.726Z,81.47
2022-07-31T19:46:09.884Z,81.61
2022-07-31T19:48:39.652Z,82.02
2022-07-31T19:51:06.433Z,82.06
2022-07-31T19:53:32.998Z,82.40
2022-07-31T19:56:01.936Z,82.24
2022-07-31T19:58:28.451Z,82.22
2022-07-31T20:00:54.932Z,82.22
2022-07-31T20:03:21.523Z,82.39
2022-07-31T20:05:48.113Z,82.72
2022-07-31T20:08:14.599Z,83.05
2022-07-31T20:10:41.145Z,82.95
2022-07-31T20:13:07.808Z,83.53
2022-07-31T20:15:51.354Z,83.53
2022-07-31T20:18:30.466Z,83.82
2022-07-31T20:21:00.830Z,84.16
2022-07-31T20:23:27.444Z,84.71
2022-07-31T20:25:54.724Z,84.71
2022-07-31T20:28:21.455Z,84.80
2022-07-31T20:30:48.331Z,84.81
2022-07-31T20:33:14.992Z,85.12
2022-07-31T20:35:48.671Z,85.07
2022-07-31T20:38:23.777Z,84.69
2022-07-31T20:40:53.329Z,85.93
2022-07-31T20:43:26.916Z,87.52
2022-07-31T20:45:57.443Z,87.66
2022-07-31T20:48:31.053Z,87.84
2022-07-31T20:51:02.539Z,88.31
2022-07-31T20:53:30.010Z,88.99
2022-07-31T20:55:57.096Z,89.48
2022-07-31T20:58:24.625Z,90.33
2022-07-31T21:00:52.363Z,89.93
2022-07-31T21:03:20.064Z,90.37
2022-07-31T21:05:47.414Z,90.81
2022-07-31T21:08:14.026Z,91.60
2022-07-31T21:10:40.968Z,91.68
2022-07-31T21:13:07.880Z,92.81
2022-07-31T21:15:42.251Z,93.58
2022-07-31T21:18:18.551Z,94.27
2022-07-31T21:20:49.969Z,94.68
2022-07-31T21:23:20.171Z,95.21
2022-07-31T21:25:47.205Z,95.34
2022-07-31T21:28:14.008Z,95.17
2022-07-31T21:30:41.385Z,95.57
2022-07-31T21:33:08.941Z,95.55
2022-07-31T21:35:37.325Z,95.49
2022-07-31T21:38:04.737Z,95.21
2022-07-31T21:40:34.028Z,95.51
2022-07-31T21:43:00.988Z,95.87
2022-07-31T21:45:39.559Z,96.27
2022-07-31T21:48:15.587Z,96.64
2022-07-31T21:50:44.819Z,97.05
2022-07-31T21:53:12.621Z,97.10
2022-07-31T21:55:40.159Z,97.30
2022-07-31T21:58:07.844Z,97.40
2022-07-31T22:00:34.826Z,97.38
2022-07-31T22:03:02.963Z,97.80
2022-07-31T22:05:48.923Z,97.82
2022-07-31T22:08:15.882Z,98.02
2022-07-31T22:10:43.078Z,98.22
2022-07-31T22:13:10.014Z,98.33
2022-07-31T22:15:55.456Z,98.27
2022-07-31T22:18:23.481Z,98.52
2022-07-31T22:20:53.597Z,98.68
2022-07-31T22:23:20.416Z,99.18
2022-07-31T22:25:48.987Z,99.43
2022-07-31T22:28:18.790Z,99.99
2022-07-31T22:30:45.809Z,100.00
2022-07-31T22:33:12.657Z,100.00
2022-07-31T22:35:40.859Z,100.00
2022-07-31T22:38:09.714Z,100.00
2022-07-31T22:40:36.362Z,100.00
2022-07-31T22:43:03.749Z,100.00
2022-07-31T22:45:34.816Z,100.00
2022-07-31T22:48:01.807Z,100.00
2022-07-31T22:50:28.418Z,100.00
2022-07-31T22:52:55.623Z,100.00
2022-07-31T22:55:22.183Z,100.00
2022-07-31T22:57:49.218Z,100.00
2022-07-31T23:00:18.243Z,100.00
2022-07-31T23:02:45.774Z,100.00
2022-07-31T23:05:12.436Z,100.00
2022-07-31T23:07:39.035Z,100.00
2022-07-31T23:10:11.084Z,100.00
2022-07-31T23:12:37.740Z,100.00
2022-07-31T23:15:05.435Z,100.00
2022-07-31T23:17:31.927Z,100.00
2022-07-31T23:19:58.955Z,100.00
2022-07-31T23:22:33.329Z,100.00
2022-07-31T23:25:01.989Z,100.00
2022-07-31T23:27:28.610Z,100.00
2022-07-31T23:29:55.298Z,100.00
2022-07-31T23:32:21.851Z,100.00
2022-07-31T23:34:48.654Z,100.00
2022-07-31T23:37:15.303Z,100.00
2022-07-31T23:39:41.927Z,100.00
2022-07-31T23:42:27.595Z,100.00
2022-07-31T23:44:54.133Z,100.00
2022-07-31T23:47:23.968Z,100.00
2022-07-31T23:50:10.440Z,100.00
2022-07-31T23:52:36.934Z,100.00
2022-07-31T23:55:03.615Z,100.00
2022-07-31T23:57:34.476Z,100.00
